sensor_id;sensor_type;location;lat;lon;timestamp;temperature;humidity
25973;DHT22;13765;51.166;4.466;2022-10-10T00:00:15;10.60;99.90
25973;DHT22;13765;51.166;4.466;2022-10-10T00:02:44;10.50;99.90
25973;DHT22;13765;51.166;4.466;2022-10-10T00:05:12;10.60;99.90
25973;DHT22;13765;51.166;4.466;2022-10-10T00:07:38;10.50;99.90
25973;DHT22;13765;51.166;4.466;2022-10-10T00:10:03;10.50;99.90
25973;DHT22;13765;51.166;4.466;2022-10-10T00:12:31;10.50;99.90
25973;DHT22;13765;51.166;4.466;2022-10-10T00:14:58;10.50;99.90
25973;DHT22;13765;51.166;4.466;2022-10-10T00:17:24;10.40;99.90
25973;DHT22;13765;51.166;4.466;2022-10-10T00:19:49;10.40;99.90
25973;DHT22;13765;51.166;4.466;2022-10-10T00:22:15;10.40;99.90
25973;DHT22;13765;51.166;4.466;2022-10-10T00:24:41;10.40;99.90
25973;DHT22;13765;51.166;4.466;2022-10-10T00:27:10;10.40;99.90
25973;DHT22;13765;51.166;4.466;2022-10-10T00:29:36;10.40;99.90
25973;DHT22;13765;51.166;4.466;2022-10-10T00:32:02;10.40;99.90
25973;DHT22;13765;51.166;4.466;2022-10-10T00:34:29;10.40;99.90
25973;DHT22;13765;51.166;4.466;2022-10-10T00:36:54;10.40;99.90
25973;DHT22;13765;51.166;4.466;2022-10-10T00:39:20;10.30;99.90
25973;DHT22;13765;51.166;4.466;2022-10-10T00:41:46;10.40;99.90
25973;DHT22;13765;51.166;4.466;2022-10-10T00:44:14;10.40;99.90
25973;DHT22;13765;51.166;4.466;2022-10-10T00:46:45;10.30;99.90
25973;DHT22;13765;51.166;4.466;2022-10-10T00:49:18;10.30;99.90
25973;DHT22;13765;51.166;4.466;2022-10-10T00:51:47;10.30;99.90
25973;DHT22;13765;51.166;4.466;2022-10-10T00:54:19;10.30;99.90
25973;DHT22;13765;51.166;4.466;2022-10-10T00:56:55;10.20;99.90
25973;DHT22;13765;51.166;4.466;2022-10-10T00:59:21;10.20;99.90
25973;DHT22;13765;51.166;4.466;2022-10-10T01:01:47;10.10;99.90
25973;DHT22;13765;51.166;4.466;2022-10-10T01:04:36;10.00;99.90
25973;DHT22;13765;51.166;4.466;2022-10-10T01:07:08;10.00;99.90
25973;DHT22;13765;51.166;4.466;2022-10-10T01:09:37;10.10;99.90
25973;DHT22;13765;51.166;4.466;2022-10-10T01:12:21;10.10;99.90
25973;DHT22;13765;51.166;4.466;2022-10-10T01:23:08;9.80;99.90
25973;DHT22;13765;51.166;4.466;2022-10-10T01:28:55;9.90;99.90
25973;DHT22;13765;51.166;4.466;2022-10-10T01:31:27;9.90;99.90
25973;DHT22;13765;51.166;4.466;2022-10-10T01:34:12;9.90;99.90
25973;DHT22;13765;51.166;4.466;2022-10-10T01:36:57;9.90;99.90
25973;DHT22;13765;51.166;4.466;2022-10-10T01:42:23;9.80;99.90
25973;DHT22;13765;51.166;4.466;2022-10-10T01:44:51;9.70;99.90
25973;DHT22;13765;51.166;4.466;2022-10-10T01:47:19;9.60;99.90
25973;DHT22;13765;51.166;4.466;2022-10-10T01:49:50;9.60;99.90
25973;DHT22;13765;51.166;4.466;2022-10-10T01:52:39;9.70;99.90
25973;DHT22;13765;51.166;4.466;2022-10-10T01:55:28;9.70;99.90
25973;DHT22;13765;51.166;4.466;2022-10-10T01:58:32;9.80;99.90
25973;DHT22;13765;51.166;4.466;2022-10-10T02:01:15;9.70;99.90
25973;DHT22;13765;51.166;4.466;2022-10-10T02:03:49;9.60;99.90
25973;DHT22;13765;51.166;4.466;2022-10-10T02:06:29;9.60;99.90
25973;DHT22;13765;51.166;4.466;2022-10-10T02:09:02;9.50;99.90
25973;DHT22;13765;51.166;4.466;2022-10-10T02:11:32;9.50;99.90
25973;DHT22;13765;51.166;4.466;2022-10-10T02:14:10;9.40;99.90
25973;DHT22;13765;51.166;4.466;2022-10-10T02:16:41;9.50;99.90
25973;DHT22;13765;51.166;4.466;2022-10-10T02:19:14;9.50;99.90
25973;DHT22;13765;51.166;4.466;2022-10-10T02:21:41;9.60;99.90
25973;DHT22;13765;51.166;4.466;2022-10-10T02:24:11;9.50;99.90
25973;DHT22;13765;51.166;4.466;2022-10-10T02:26:42;9.50;99.90
25973;DHT22;13765;51.166;4.466;2022-10-10T02:29:15;9.50;99.90
25973;DHT22;13765;51.166;4.466;2022-10-10T02:34:18;9.30;99.90
25973;DHT22;13765;51.166;4.466;2022-10-10T02:36:50;9.30;99.90
25973;DHT22;13765;51.166;4.466;2022-10-10T02:39:18;9.30;99.90
25973;DHT22;13765;51.166;4.466;2022-10-10T02:41:48;9.30;99.90
25973;DHT22;13765;51.166;4.466;2022-10-10T02:44:15;9.40;99.90
25973;DHT22;13765;51.166;4.466;2022-10-10T02:46:41;9.40;99.90
25973;DHT22;13765;51.166;4.466;2022-10-10T02:49:08;9.30;99.90
25973;DHT22;13765;51.166;4.466;2022-10-10T02:51:34;9.30;99.90
25973;DHT22;13765;51.166;4.466;2022-10-10T02:54:03;9.30;99.90
25973;DHT22;13765;51.166;4.466;2022-10-10T02:56:29;9.30;99.90
25973;DHT22;13765;51.166;4.466;2022-10-10T02:58:55;9.30;99.90
25973;DHT22;13765;51.166;4.466;2022-10-10T03:01:24;9.20;99.90
25973;DHT22;13765;51.166;4.466;2022-10-10T03:03:52;9.20;99.90
25973;DHT22;13765;51.166;4.466;2022-10-10T03:06:20;9.30;99.90
25973;DHT22;13765;51.166;4.466;2022-10-10T03:08:45;9.30;99.90
25973;DHT22;13765;51.166;4.466;2022-10-10T03:11:11;9.30;99.90
25973;DHT22;13765;51.166;4.466;2022-10-10T03:13:37;9.30;99.90
25973;DHT22;13765;51.166;4.466;2022-10-10T03:16:03;9.30;99.90
25973;DHT22;13765;51.166;4.466;2022-10-10T03:18:31;9.30;99.90
25973;DHT22;13765;51.166;4.466;2022-10-10T03:20:59;9.30;99.90
25973;DHT22;13765;51.166;4.466;2022-10-10T03:23:25;9.40;99.90
25973;DHT22;13765;51.166;4.466;2022-10-10T03:25:55;9.30;99.90
25973;DHT22;13765;51.166;4.466;2022-10-10T03:28:24;9.30;99.90
25973;DHT22;13765;51.166;4.466;2022-10-10T03:30:55;9.40;99.90
25973;DHT22;13765;51.166;4.466;2022-10-10T03:33:21;9.40;99.90
25973;DHT22;13765;51.166;4.466;2022-10-10T03:35:47;9.40;99.90
25973;DHT22;13765;51.166;4.466;2022-10-10T03:38:13;9.40;99.90
25973;DHT22;13765;51.166;4.466;2022-10-10T03:40:43;9.30;99.90
25973;DHT22;13765;51.166;4.466;2022-10-10T03:43:13;9.40;99.90
25973;DHT22;13765;51.166;4.466;2022-10-10T03:45:43;9.40;99.90
25973;DHT22;13765;51.166;4.466;2022-10-10T03:48:15;9.30;99.90
25973;DHT22;13765;51.166;4.466;2022-10-10T03:50:40;9.30;99.90
25973;DHT22;13765;51.166;4.466;2022-10-10T03:53:09;9.30;99.90
25973;DHT22;13765;51.166;4.466;2022-10-10T03:55:41;9.30;99.90
25973;DHT22;13765;51.166;4.466;2022-10-10T03:58:08;9.40;99.90
25973;DHT22;13765;51.166;4.466;2022-10-10T04:00:34;9.40;99.90
25973;DHT22;13765;51.166;4.466;2022-10-10T04:03:00;9.40;99.90
25973;DHT22;13765;51.166;4.466;2022-10-10T04:05:32;9.30;99.90
25973;DHT22;13765;51.166;4.466;2022-10-10T04:08:01;9.30;99.90
25973;DHT22;13765;51.166;4.466;2022-10-10T04:10:26;9.40;99.90
25973;DHT22;13765;51.166;4.466;2022-10-10T04:12:52;9.40;99.90
25973;DHT22;13765;51.166;4.466;2022-10-10T04:15:18;9.30;99.90
25973;DHT22;13765;51.166;4.466;2022-10-10T04:17:44;9.30;99.90
25973;DHT22;13765;51.166;4.466;2022-10-10T04:20:11;9.30;99.90
25973;DHT22;13765;51.166;4.466;2022-10-10T04:22:38;9.30;99.90
25973;DHT22;13765;51.166;4.466;2022-10-10T04:25:04;9.20;99.90
25973;DHT22;13765;51.166;4.466;2022-10-10T04:27:30;9.20;99.90
25973;DHT22;13765;51.166;4.466;2022-10-10T04:29:55;9.20;99.90
25973;DHT22;13765;51.166;4.466;2022-10-10T04:32:23;9.20;99.90
25973;DHT22;13765;51.166;4.466;2022-10-10T04:34:50;9.30;99.90
25973;DHT22;13765;51.166;4.466;2022-10-10T04:37:18;9.30;99.90
25973;DHT22;13765;51.166;4.466;2022-10-10T04:39:47;9.30;99.90
25973;DHT22;13765;51.166;4.466;2022-10-10T04:42:13;9.30;99.90
25973;DHT22;13765;51.166;4.466;2022-10-10T04:44:39;9.20;99.90
25973;DHT22;13765;51.166;4.466;2022-10-10T04:47:07;9.20;99.90
25973;DHT22;13765;51.166;4.466;2022-10-10T04:49:39;9.40;99.90
25973;DHT22;13765;51.166;4.466;2022-10-10T04:52:07;9.30;99.90
25973;DHT22;13765;51.166;4.466;2022-10-10T04:54:33;9.30;99.90
25973;DHT22;13765;51.166;4.466;2022-10-10T04:56:59;9.20;99.90
25973;DHT22;13765;51.166;4.466;2022-10-10T04:59:24;9.30;99.90
25973;DHT22;13765;51.166;4.466;2022-10-10T05:01:50;9.30;99.90
25973;DHT22;13765;51.166;4.466;2022-10-10T05:04:17;9.30;99.90
25973;DHT22;13765;51.166;4.466;2022-10-10T05:06:44;9.30;99.90
25973;DHT22;13765;51.166;4.466;2022-10-10T05:09:10;9.40;99.90
25973;DHT22;13765;51.166;4.466;2022-10-10T05:11:36;9.40;99.90
25973;DHT22;13765;51.166;4.466;2022-10-10T05:14:02;9.40;99.90
25973;DHT22;13765;51.166;4.466;2022-10-10T05:16:28;9.50;99.90
25973;DHT22;13765;51.166;4.466;2022-10-10T05:18:54;9.40;99.90
25973;DHT22;13765;51.166;4.466;2022-10-10T05:21:24;9.40;99.90
25973;DHT22;13765;51.166;4.466;2022-10-10T05:23:53;9.50;99.90
25973;DHT22;13765;51.166;4.466;2022-10-10T05:26:19;9.30;99.90
25973;DHT22;13765;51.166;4.466;2022-10-10T05:28:45;9.40;99.90
25973;DHT22;13765;51.166;4.466;2022-10-10T05:31:14;9.40;99.90
25973;DHT22;13765;51.166;4.466;2022-10-10T05:33:40;9.40;99.90
25973;DHT22;13765;51.166;4.466;2022-10-10T05:36:08;9.50;99.90
25973;DHT22;13765;51.166;4.466;2022-10-10T05:38:35;9.40;99.90
25973;DHT22;13765;51.166;4.466;2022-10-10T05:41:04;9.40;99.90
25973;DHT22;13765;51.166;4.466;2022-10-10T05:43:30;9.40;99.90
25973;DHT22;13765;51.166;4.466;2022-10-10T05:45:59;9.40;99.90
25973;DHT22;13765;51.166;4.466;2022-10-10T05:48:32;9.40;99.90
25973;DHT22;13765;51.166;4.466;2022-10-10T05:50:59;9.40;99.90
25973;DHT22;13765;51.166;4.466;2022-10-10T05:53:28;9.40;99.90
25973;DHT22;13765;51.166;4.466;2022-10-10T05:55:55;9.40;99.90
25973;DHT22;13765;51.166;4.466;2022-10-10T05:58:21;9.40;99.90
25973;DHT22;13765;51.166;4.466;2022-10-10T06:00:49;9.40;99.90
25973;DHT22;13765;51.166;4.466;2022-10-10T06:03:20;9.30;99.90
25973;DHT22;13765;51.166;4.466;2022-10-10T06:05:49;9.40;99.90
25973;DHT22;13765;51.166;4.466;2022-10-10T06:08:18;9.40;99.90
25973;DHT22;13765;51.166;4.466;2022-10-10T06:10:44;9.40;99.90
25973;DHT22;13765;51.166;4.466;2022-10-10T06:13:12;9.40;99.90
25973;DHT22;13765;51.166;4.466;2022-10-10T06:15:38;9.50;99.90
25973;DHT22;13765;51.166;4.466;2022-10-10T06:18:06;9.50;99.90
25973;DHT22;13765;51.166;4.466;2022-10-10T06:20:36;9.60;99.90
25973;DHT22;13765;51.166;4.466;2022-10-10T06:23:06;9.60;99.90
25973;DHT22;13765;51.166;4.466;2022-10-10T06:25:33;9.60;99.90
25973;DHT22;13765;51.166;4.466;2022-10-10T06:27:59;9.60;99.90
25973;DHT22;13765;51.166;4.466;2022-10-10T06:30:25;9.70;99.90
25973;DHT22;13765;51.166;4.466;2022-10-10T06:32:51;9.70;99.90
25973;DHT22;13765;51.166;4.466;2022-10-10T06:35:19;9.80;99.90
25973;DHT22;13765;51.166;4.466;2022-10-10T06:37:45;9.80;99.90
25973;DHT22;13765;51.166;4.466;2022-10-10T06:40:13;9.90;99.90
25973;DHT22;13765;51.166;4.466;2022-10-10T06:42:41;10.00;99.90
25973;DHT22;13765;51.166;4.466;2022-10-10T06:45:08;10.20;99.90
25973;DHT22;13765;51.166;4.466;2022-10-10T06:47:36;10.30;99.90
25973;DHT22;13765;51.166;4.466;2022-10-10T06:50:02;10.40;99.90
25973;DHT22;13765;51.166;4.466;2022-10-10T06:52:30;10.50;99.90
25973;DHT22;13765;51.166;4.466;2022-10-10T06:54:56;10.60;99.90
25973;DHT22;13765;51.166;4.466;2022-10-10T06:57:26;10.70;99.90
25973;DHT22;13765;51.166;4.466;2022-10-10T06:59:51;10.80;99.90
25973;DHT22;13765;51.166;4.466;2022-10-10T07:02:17;11.00;99.90
25973;DHT22;13765;51.166;4.466;2022-10-10T07:04:46;11.00;99.90
25973;DHT22;13765;51.166;4.466;2022-10-10T07:07:15;11.20;99.90
25973;DHT22;13765;51.166;4.466;2022-10-10T07:09:41;11.30;99.90
25973;DHT22;13765;51.166;4.466;2022-10-10T07:12:09;11.40;99.90
25973;DHT22;13765;51.166;4.466;2022-10-10T07:14:38;11.50;99.90
25973;DHT22;13765;51.166;4.466;2022-10-10T07:17:03;11.50;99.90
25973;DHT22;13765;51.166;4.466;2022-10-10T07:19:31;11.50;99.90
25973;DHT22;13765;51.166;4.466;2022-10-10T07:22:00;11.60;99.90
25973;DHT22;13765;51.166;4.466;2022-10-10T07:24:26;11.70;99.90
25973;DHT22;13765;51.166;4.466;2022-10-10T07:26:51;11.70;99.90
25973;DHT22;13765;51.166;4.466;2022-10-10T07:29:19;11.80;99.90
25973;DHT22;13765;51.166;4.466;2022-10-10T07:31:45;11.80;99.90
25973;DHT22;13765;51.166;4.466;2022-10-10T07:34:13;11.90;99.90
25973;DHT22;13765;51.166;4.466;2022-10-10T07:36:42;11.90;99.90
25973;DHT22;13765;51.166;4.466;2022-10-10T07:39:11;12.00;99.90
25973;DHT22;13765;51.166;4.466;2022-10-10T07:41:37;12.00;99.90
25973;DHT22;13765;51.166;4.466;2022-10-10T07:44:02;12.10;99.90
25973;DHT22;13765;51.166;4.466;2022-10-10T07:46:37;12.20;99.90
25973;DHT22;13765;51.166;4.466;2022-10-10T07:49:05;12.20;99.90
25973;DHT22;13765;51.166;4.466;2022-10-10T07:51:31;12.40;99.90
25973;DHT22;13765;51.166;4.466;2022-10-10T07:53:57;12.50;99.90
25973;DHT22;13765;51.166;4.466;2022-10-10T07:56:25;12.60;99.90
25973;DHT22;13765;51.166;4.466;2022-10-10T07:58:54;12.70;99.90
25973;DHT22;13765;51.166;4.466;2022-10-10T08:01:19;12.80;99.90
25973;DHT22;13765;51.166;4.466;2022-10-10T08:03:47;12.90;99.90
25973;DHT22;13765;51.166;4.466;2022-10-10T08:06:16;13.00;99.90
25973;DHT22;13765;51.166;4.466;2022-10-10T08:08:47;13.10;99.90
25973;DHT22;13765;51.166;4.466;2022-10-10T08:11:13;13.20;99.90
25973;DHT22;13765;51.166;4.466;2022-10-10T08:13:39;13.20;99.90
25973;DHT22;13765;51.166;4.466;2022-10-10T08:16:07;13.40;99.90
25973;DHT22;13765;51.166;4.466;2022-10-10T08:18:35;13.40;99.90
25973;DHT22;13765;51.166;4.466;2022-10-10T08:21:07;13.50;99.90
25973;DHT22;13765;51.166;4.466;2022-10-10T08:23:34;13.50;99.90
25973;DHT22;13765;51.166;4.466;2022-10-10T08:26:04;13.60;99.90
25973;DHT22;13765;51.166;4.466;2022-10-10T08:28:31;13.70;99.90
25973;DHT22;13765;51.166;4.466;2022-10-10T08:30:58;13.90;99.90
25973;DHT22;13765;51.166;4.466;2022-10-10T08:33:27;14.00;99.90
25973;DHT22;13765;51.166;4.466;2022-10-10T08:35:53;14.20;99.90
25973;DHT22;13765;51.166;4.466;2022-10-10T08:38:20;14.30;99.90
25973;DHT22;13765;51.166;4.466;2022-10-10T08:40:51;14.60;99.90
25973;DHT22;13765;51.166;4.466;2022-10-10T08:43:36;14.90;99.90
25973;DHT22;13765;51.166;4.466;2022-10-10T08:46:19;15.20;99.90
25973;DHT22;13765;51.166;4.466;2022-10-10T08:48:49;15.40;99.90
25973;DHT22;13765;51.166;4.466;2022-10-10T08:51:29;15.50;99.90
25973;DHT22;13765;51.166;4.466;2022-10-10T08:53:57;15.50;99.90
25973;DHT22;13765;51.166;4.466;2022-10-10T08:56:34;15.60;99.90
25973;DHT22;13765;51.166;4.466;2022-10-10T08:59:23;15.50;99.90
25973;DHT22;13765;51.166;4.466;2022-10-10T09:01:59;15.60;99.90
25973;DHT22;13765;51.166;4.466;2022-10-10T09:04:32;15.70;99.90
25973;DHT22;13765;51.166;4.466;2022-10-10T09:10:25;15.80;99.90
25973;DHT22;13765;51.166;4.466;2022-10-10T09:15:29;16.10;99.90
25973;DHT22;13765;51.166;4.466;2022-10-10T09:20:35;16.40;99.90
25973;DHT22;13765;51.166;4.466;2022-10-10T09:23:20;16.40;99.90
25973;DHT22;13765;51.166;4.466;2022-10-10T09:26:04;16.50;99.90
25973;DHT22;13765;51.166;4.466;2022-10-10T09:28:48;16.50;99.90
25973;DHT22;13765;51.166;4.466;2022-10-10T09:36:20;17.00;99.90
25973;DHT22;13765;51.166;4.466;2022-10-10T09:38:56;17.20;99.90
25973;DHT22;13765;51.166;4.466;2022-10-10T09:41:30;17.40;99.90
25973;DHT22;13765;51.166;4.466;2022-10-10T09:43:59;17.40;99.90
25973;DHT22;13765;51.166;4.466;2022-10-10T09:46:26;17.30;99.90
25973;DHT22;13765;51.166;4.466;2022-10-10T09:48:53;17.60;99.90
25973;DHT22;13765;51.166;4.466;2022-10-10T09:51:20;17.90;99.90
25973;DHT22;13765;51.166;4.466;2022-10-10T09:53:50;18.00;99.90
25973;DHT22;13765;51.166;4.466;2022-10-10T09:56:26;18.30;99.90
25973;DHT22;13765;51.166;4.466;2022-10-10T09:58:54;18.60;99.90
25973;DHT22;13765;51.166;4.466;2022-10-10T10:01:29;18.70;99.90
25973;DHT22;13765;51.166;4.466;2022-10-10T10:04:14;18.70;99.90
25973;DHT22;13765;51.166;4.466;2022-10-10T10:06:45;18.70;99.90
25973;DHT22;13765;51.166;4.466;2022-10-10T10:09:18;18.80;99.90
25973;DHT22;13765;51.166;4.466;2022-10-10T10:11:48;18.70;99.90
25973;DHT22;13765;51.166;4.466;2022-10-10T10:16:50;18.50;99.90
25973;DHT22;13765;51.166;4.466;2022-10-10T10:19:51;18.70;99.90
25973;DHT22;13765;51.166;4.466;2022-10-10T10:22:34;18.40;99.90
25973;DHT22;13765;51.166;4.466;2022-10-10T10:25:36;18.30;99.90
25973;DHT22;13765;51.166;4.466;2022-10-10T10:30:44;18.60;99.90
25973;DHT22;13765;51.166;4.466;2022-10-10T10:38:33;18.80;99.90
25973;DHT22;13765;51.166;4.466;2022-10-10T10:41:31;18.70;99.90
25973;DHT22;13765;51.166;4.466;2022-10-10T10:49:20;19.40;99.90
25973;DHT22;13765;51.166;4.466;2022-10-10T10:52:12;19.40;99.90
25973;DHT22;13765;51.166;4.466;2022-10-10T10:58:14;19.80;99.90
25973;DHT22;13765;51.166;4.466;2022-10-10T11:09:09;20.00;99.90
25973;DHT22;13765;51.166;4.466;2022-10-10T11:26:56;20.40;99.90
25973;DHT22;13765;51.166;4.466;2022-10-10T11:29:28;20.70;99.90
25973;DHT22;13765;51.166;4.466;2022-10-10T11:35:26;20.60;99.90
25973;DHT22;13765;51.166;4.466;2022-10-10T11:38:02;20.30;99.90
25973;DHT22;13765;51.166;4.466;2022-10-10T11:40:35;20.20;99.90
25973;DHT22;13765;51.166;4.466;2022-10-10T11:51:46;20.30;99.90
25973;DHT22;13765;51.166;4.466;2022-10-10T11:54:36;20.30;99.90
25973;DHT22;13765;51.166;4.466;2022-10-10T11:57:11;20.70;99.90
25973;DHT22;13765;51.166;4.466;2022-10-10T11:59:45;20.70;99.90
25973;DHT22;13765;51.166;4.466;2022-10-10T12:02:22;21.10;99.90
25973;DHT22;13765;51.166;4.466;2022-10-10T12:04:50;21.30;99.90
25973;DHT22;13765;51.166;4.466;2022-10-10T12:07:30;21.50;99.90
25973;DHT22;13765;51.166;4.466;2022-10-10T12:12:46;21.60;99.90
25973;DHT22;13765;51.166;4.466;2022-10-10T12:17:53;21.30;99.90
25973;DHT22;13765;51.166;4.466;2022-10-10T12:23:26;20.90;99.90
25973;DHT22;13765;51.166;4.466;2022-10-10T12:25:54;20.70;99.90
25973;DHT22;13765;51.166;4.466;2022-10-10T12:28:24;20.50;99.90
25973;DHT22;13765;51.166;4.466;2022-10-10T12:35:52;20.20;99.90
25973;DHT22;13765;51.166;4.466;2022-10-10T12:38:25;20.00;99.90
25973;DHT22;13765;51.166;4.466;2022-10-10T12:41:10;19.90;99.90
25973;DHT22;13765;51.166;4.466;2022-10-10T12:46:27;19.70;99.90
25973;DHT22;13765;51.166;4.466;2022-10-10T12:51:29;19.60;99.90
25973;DHT22;13765;51.166;4.466;2022-10-10T12:53:58;19.60;99.90
25973;DHT22;13765;51.166;4.466;2022-10-10T12:56:37;19.50;99.90
25973;DHT22;13765;51.166;4.466;2022-10-10T12:59:06;19.30;99.90
25973;DHT22;13765;51.166;4.466;2022-10-10T13:01:44;19.30;99.90
25973;DHT22;13765;51.166;4.466;2022-10-10T13:04:15;19.30;99.90
25973;DHT22;13765;51.166;4.466;2022-10-10T13:06:42;19.40;99.90
25973;DHT22;13765;51.166;4.466;2022-10-10T13:09:19;19.50;99.90
25973;DHT22;13765;51.166;4.466;2022-10-10T13:11:58;19.70;99.90
25973;DHT22;13765;51.166;4.466;2022-10-10T13:14:27;19.80;99.90
25973;DHT22;13765;51.166;4.466;2022-10-10T13:17:01;19.90;99.90
25973;DHT22;13765;51.166;4.466;2022-10-10T13:19:27;19.90;99.90
25973;DHT22;13765;51.166;4.466;2022-10-10T13:21:54;19.90;99.90
25973;DHT22;13765;51.166;4.466;2022-10-10T13:24:28;19.80;99.90
25973;DHT22;13765;51.166;4.466;2022-10-10T13:26:56;19.60;99.90
25973;DHT22;13765;51.166;4.466;2022-10-10T13:29:31;19.50;99.90
25973;DHT22;13765;51.166;4.466;2022-10-10T13:32:03;19.50;99.90
25973;DHT22;13765;51.166;4.466;2022-10-10T13:34:34;19.50;99.90
25973;DHT22;13765;51.166;4.466;2022-10-10T13:37:04;19.60;99.90
25973;DHT22;13765;51.166;4.466;2022-10-10T13:39:37;19.70;99.90
25973;DHT22;13765;51.166;4.466;2022-10-10T13:44:49;19.60;99.90
25973;DHT22;13765;51.166;4.466;2022-10-10T13:47:42;19.60;99.90
25973;DHT22;13765;51.166;4.466;2022-10-10T13:58:27;19.10;99.90
25973;DHT22;13765;51.166;4.466;2022-10-10T14:00:56;19.10;99.90
25973;DHT22;13765;51.166;4.466;2022-10-10T14:03:24;19.00;99.90
25973;DHT22;13765;51.166;4.466;2022-10-10T14:05:53;19.00;99.90
25973;DHT22;13765;51.166;4.466;2022-10-10T14:08:26;18.90;99.90
25973;DHT22;13765;51.166;4.466;2022-10-10T14:10:59;18.70;99.90
25973;DHT22;13765;51.166;4.466;2022-10-10T14:13:27;18.60;99.90
25973;DHT22;13765;51.166;4.466;2022-10-10T14:16:12;18.40;99.90
25973;DHT22;13765;51.166;4.466;2022-10-10T14:18:46;18.20;99.90
25973;DHT22;13765;51.166;4.466;2022-10-10T14:21:14;18.00;99.90
25973;DHT22;13765;51.166;4.466;2022-10-10T14:23:40;18.00;99.90
25973;DHT22;13765;51.166;4.466;2022-10-10T14:26:11;17.80;99.90
25973;DHT22;13765;51.166;4.466;2022-10-10T14:28:38;17.80;99.90
25973;DHT22;13765;51.166;4.466;2022-10-10T14:31:06;17.70;99.90
25973;DHT22;13765;51.166;4.466;2022-10-10T14:33:32;17.50;99.90
25973;DHT22;13765;51.166;4.466;2022-10-10T14:36:00;17.40;99.90
25973;DHT22;13765;51.166;4.466;2022-10-10T14:38:26;17.20;99.90
25973;DHT22;13765;51.166;4.466;2022-10-10T14:40:53;17.10;99.90
25973;DHT22;13765;51.166;4.466;2022-10-10T14:43:23;17.00;99.90
25973;DHT22;13765;51.166;4.466;2022-10-10T14:45:51;16.80;99.90
25973;DHT22;13765;51.166;4.466;2022-10-10T14:48:19;16.70;99.90
25973;DHT22;13765;51.166;4.466;2022-10-10T14:50:48;16.60;99.90
25973;DHT22;13765;51.166;4.466;2022-10-10T14:53:15;16.60;99.90
25973;DHT22;13765;51.166;4.466;2022-10-10T14:55:47;16.50;99.90
25973;DHT22;13765;51.166;4.466;2022-10-10T14:58:18;16.50;99.90
25973;DHT22;13765;51.166;4.466;2022-10-10T15:00:49;16.40;99.90
25973;DHT22;13765;51.166;4.466;2022-10-10T15:03:19;16.40;99.90
25973;DHT22;13765;51.166;4.466;2022-10-10T15:05:45;16.40;99.90
25973;DHT22;13765;51.166;4.466;2022-10-10T15:08:14;16.10;99.90
25973;DHT22;13765;51.166;4.466;2022-10-10T15:10:41;15.90;99.90
25973;DHT22;13765;51.166;4.466;2022-10-10T15:13:09;15.80;99.90
25973;DHT22;13765;51.166;4.466;2022-10-10T15:15:37;15.70;99.90
25973;DHT22;13765;51.166;4.466;2022-10-10T15:18:06;15.60;99.90
25973;DHT22;13765;51.166;4.466;2022-10-10T15:20:32;15.40;99.90
25973;DHT22;13765;51.166;4.466;2022-10-10T15:23:01;15.30;99.90
25973;DHT22;13765;51.166;4.466;2022-10-10T15:25:28;15.30;99.90
25973;DHT22;13765;51.166;4.466;2022-10-10T15:27:56;15.20;99.90
25973;DHT22;13765;51.166;4.466;2022-10-10T15:30:23;15.20;99.90
25973;DHT22;13765;51.166;4.466;2022-10-10T15:32:49;15.20;99.90
25973;DHT22;13765;51.166;4.466;2022-10-10T15:35:18;15.00;99.90
25973;DHT22;13765;51.166;4.466;2022-10-10T15:37:46;15.00;99.90
25973;DHT22;13765;51.166;4.466;2022-10-10T15:40:17;15.10;99.90
25973;DHT22;13765;51.166;4.466;2022-10-10T15:42:47;15.10;99.90
25973;DHT22;13765;51.166;4.466;2022-10-10T15:45:13;15.10;99.90
25973;DHT22;13765;51.166;4.466;2022-10-10T15:47:40;15.20;99.90
25973;DHT22;13765;51.166;4.466;2022-10-10T15:50:09;15.20;99.90
25973;DHT22;13765;51.166;4.466;2022-10-10T15:52:36;15.10;99.90
25973;DHT22;13765;51.166;4.466;2022-10-10T15:55:05;15.10;99.90
25973;DHT22;13765;51.166;4.466;2022-10-10T15:57:30;15.10;99.90
25973;DHT22;13765;51.166;4.466;2022-10-10T15:59:56;15.00;99.90
25973;DHT22;13765;51.166;4.466;2022-10-10T16:02:22;15.00;99.90
25973;DHT22;13765;51.166;4.466;2022-10-10T16:04:50;15.00;99.90
25973;DHT22;13765;51.166;4.466;2022-10-10T16:07:16;15.00;99.90
25973;DHT22;13765;51.166;4.466;2022-10-10T16:09:47;15.00;99.90
25973;DHT22;13765;51.166;4.466;2022-10-10T16:12:15;15.10;99.90
25973;DHT22;13765;51.166;4.466;2022-10-10T16:14:41;15.00;99.90
25973;DHT22;13765;51.166;4.466;2022-10-10T16:17:07;15.00;99.90
25973;DHT22;13765;51.166;4.466;2022-10-10T16:19:37;15.00;99.90
25973;DHT22;13765;51.166;4.466;2022-10-10T16:22:04;15.00;99.90
25973;DHT22;13765;51.166;4.466;2022-10-10T16:24:30;15.00;99.90
25973;DHT22;13765;51.166;4.466;2022-10-10T16:26:56;15.10;99.90
25973;DHT22;13765;51.166;4.466;2022-10-10T16:29:26;15.10;99.90
25973;DHT22;13765;51.166;4.466;2022-10-10T16:31:54;15.20;99.90
25973;DHT22;13765;51.166;4.466;2022-10-10T16:34:20;15.10;99.90
25973;DHT22;13765;51.166;4.466;2022-10-10T16:36:48;15.10;99.90
25973;DHT22;13765;51.166;4.466;2022-10-10T16:39:14;15.10;99.90
25973;DHT22;13765;51.166;4.466;2022-10-10T16:41:40;15.00;99.90
25973;DHT22;13765;51.166;4.466;2022-10-10T16:44:06;15.10;99.90
25973;DHT22;13765;51.166;4.466;2022-10-10T16:46:32;15.00;99.90
25973;DHT22;13765;51.166;4.466;2022-10-10T16:48:58;15.00;99.90
25973;DHT22;13765;51.166;4.466;2022-10-10T16:51:26;15.00;99.90
25973;DHT22;13765;51.166;4.466;2022-10-10T16:53:53;14.90;99.90
25973;DHT22;13765;51.166;4.466;2022-10-10T16:56:20;15.00;99.90
25973;DHT22;13765;51.166;4.466;2022-10-10T16:58:46;14.90;99.90
25973;DHT22;13765;51.166;4.466;2022-10-10T17:01:15;14.70;99.90
25973;DHT22;13765;51.166;4.466;2022-10-10T17:03:41;14.60;99.90
25973;DHT22;13765;51.166;4.466;2022-10-10T17:06:09;14.50;99.90
25973;DHT22;13765;51.166;4.466;2022-10-10T17:08:40;14.40;99.90
25973;DHT22;13765;51.166;4.466;2022-10-10T17:11:06;14.30;99.90
25973;DHT22;13765;51.166;4.466;2022-10-10T17:13:36;14.20;99.90
25973;DHT22;13765;51.166;4.466;2022-10-10T17:16:07;14.20;99.90
25973;DHT22;13765;51.166;4.466;2022-10-10T17:18:36;14.10;99.90
25973;DHT22;13765;51.166;4.466;2022-10-10T17:21:15;14.00;99.90
25973;DHT22;13765;51.166;4.466;2022-10-10T17:23:42;13.90;99.90
25973;DHT22;13765;51.166;4.466;2022-10-10T17:26:13;13.80;99.90
25973;DHT22;13765;51.166;4.466;2022-10-10T17:28:43;13.70;99.90
25973;DHT22;13765;51.166;4.466;2022-10-10T17:31:14;13.70;99.90
25973;DHT22;13765;51.166;4.466;2022-10-10T17:33:43;13.60;99.90
25973;DHT22;13765;51.166;4.466;2022-10-10T17:36:15;13.50;99.90
25973;DHT22;13765;51.166;4.466;2022-10-10T17:38:41;13.40;99.90
25973;DHT22;13765;51.166;4.466;2022-10-10T17:41:09;13.40;99.90
25973;DHT22;13765;51.166;4.466;2022-10-10T17:43:38;13.30;99.90
25973;DHT22;13765;51.166;4.466;2022-10-10T17:46:10;13.20;99.90